sensor_id;sensor_type;location;lat;lon;timestamp;pressure;altitude;pressure_sealevel;temperature
23208;BMP180;11773;52.570;13.052;2022-08-21T00:02:24;101303.00;;;26.20
23208;BMP180;11773;52.570;13.052;2022-08-21T00:04:55;101308.00;;;26.10
23208;BMP180;11773;52.570;13.052;2022-08-21T00:07:25;101304.00;;;26.10
23208;BMP180;11773;52.570;13.052;2022-08-21T00:09:55;101308.00;;;26.10
23208;BMP180;11773;52.570;13.052;2022-08-21T00:12:25;101324.00;;;26.10
23208;BMP180;11773;52.570;13.052;2022-08-21T00:14:55;101318.00;;;26.10
23208;BMP180;11773;52.570;13.052;2022-08-21T00:17:25;101319.00;;;26.10
23208;BMP180;11773;52.570;13.052;2022-08-21T00:19:55;101312.00;;;26.00
23208;BMP180;11773;52.570;13.052;2022-08-21T00:22:24;101321.00;;;26.00
23208;BMP180;11773;52.570;13.052;2022-08-21T00:24:54;101317.00;;;26.00
23208;BMP180;11773;52.570;13.052;2022-08-21T00:27:24;101320.00;;;26.00
23208;BMP180;11773;52.570;13.052;2022-08-21T00:29:53;101315.00;;;26.00
23208;BMP180;11773;52.570;13.052;2022-08-21T00:32:26;101309.00;;;25.90
23208;BMP180;11773;52.570;13.052;2022-08-21T00:34:55;101313.00;;;25.90
23208;BMP180;11773;52.570;13.052;2022-08-21T00:37:25;101310.00;;;25.90
23208;BMP180;11773;52.570;13.052;2022-08-21T00:39:57;101310.00;;;25.90
23208;BMP180;11773;52.570;13.052;2022-08-21T00:42:29;101306.00;;;25.80
23208;BMP180;11773;52.570;13.052;2022-08-21T00:44:59;101305.00;;;25.80
23208;BMP180;11773;52.570;13.052;2022-08-21T00:47:28;101318.00;;;25.80
23208;BMP180;11773;52.570;13.052;2022-08-21T00:49:58;101312.00;;;25.80
23208;BMP180;11773;52.570;13.052;2022-08-21T00:52:31;101314.00;;;25.80
23208;BMP180;11773;52.570;13.052;2022-08-21T00:55:02;101309.00;;;25.70
23208;BMP180;11773;52.570;13.052;2022-08-21T00:57:42;101319.00;;;25.70
23208;BMP180;11773;52.570;13.052;2022-08-21T01:00:15;101312.00;;;25.70
23208;BMP180;11773;52.570;13.052;2022-08-21T01:02:46;101301.00;;;25.60
23208;BMP180;11773;52.570;13.052;2022-08-21T01:05:16;101302.00;;;25.60
23208;BMP180;11773;52.570;13.052;2022-08-21T01:07:45;101299.00;;;25.60
23208;BMP180;11773;52.570;13.052;2022-08-21T01:10:16;101293.00;;;25.60
23208;BMP180;11773;52.570;13.052;2022-08-21T01:12:48;101296.00;;;25.60
23208;BMP180;11773;52.570;13.052;2022-08-21T01:15:23;101301.00;;;25.60
23208;BMP180;11773;52.570;13.052;2022-08-21T01:17:53;101299.00;;;25.50
23208;BMP180;11773;52.570;13.052;2022-08-21T01:20:23;101306.00;;;25.50
23208;BMP180;11773;52.570;13.052;2022-08-21T01:22:54;101310.00;;;25.50
23208;BMP180;11773;52.570;13.052;2022-08-21T01:25:24;101295.00;;;25.50
23208;BMP180;11773;52.570;13.052;2022-08-21T01:27:54;101300.00;;;25.50
23208;BMP180;11773;52.570;13.052;2022-08-21T01:30:27;101297.00;;;25.40
23208;BMP180;11773;52.570;13.052;2022-08-21T01:32:58;101292.00;;;25.40
23208;BMP180;11773;52.570;13.052;2022-08-21T01:35:27;101293.00;;;25.30
23208;BMP180;11773;52.570;13.052;2022-08-21T01:37:58;101295.00;;;25.30
23208;BMP180;11773;52.570;13.052;2022-08-21T01:40:27;101303.00;;;25.30
23208;BMP180;11773;52.570;13.052;2022-08-21T01:42:57;101298.00;;;25.30
23208;BMP180;11773;52.570;13.052;2022-08-21T01:45:26;101306.00;;;25.20
23208;BMP180;11773;52.570;13.052;2022-08-21T01:47:56;101306.00;;;25.20
23208;BMP180;11773;52.570;13.052;2022-08-21T01:50:25;101305.00;;;25.20
23208;BMP180;11773;52.570;13.052;2022-08-21T01:52:55;101298.00;;;25.10
23208;BMP180;11773;52.570;13.052;2022-08-21T01:55:25;101305.00;;;25.10
23208;BMP180;11773;52.570;13.052;2022-08-21T01:57:55;101307.00;;;25.10
23208;BMP180;11773;52.570;13.052;2022-08-21T02:00:26;101322.00;;;25.10
23208;BMP180;11773;52.570;13.052;2022-08-21T02:02:56;101316.00;;;25.00
23208;BMP180;11773;52.570;13.052;2022-08-21T02:05:26;101307.00;;;25.00
23208;BMP180;11773;52.570;13.052;2022-08-21T02:07:56;101317.00;;;25.00
23208;BMP180;11773;52.570;13.052;2022-08-21T02:10:31;101327.00;;;24.90
23208;BMP180;11773;52.570;13.052;2022-08-21T02:13:01;101305.00;;;24.90
23208;BMP180;11773;52.570;13.052;2022-08-21T02:15:31;101310.00;;;24.90
23208;BMP180;11773;52.570;13.052;2022-08-21T02:18:05;101314.00;;;24.90
23208;BMP180;11773;52.570;13.052;2022-08-21T02:20:39;101311.00;;;24.90
23208;BMP180;11773;52.570;13.052;2022-08-21T02:23:11;101315.00;;;24.80
23208;BMP180;11773;52.570;13.052;2022-08-21T02:25:42;101308.00;;;24.80
23208;BMP180;11773;52.570;13.052;2022-08-21T02:28:14;101313.00;;;24.80
23208;BMP180;11773;52.570;13.052;2022-08-21T02:30:47;101305.00;;;24.80
23208;BMP180;11773;52.570;13.052;2022-08-21T02:33:17;101306.00;;;24.70
23208;BMP180;11773;52.570;13.052;2022-08-21T02:35:48;101315.00;;;24.70
23208;BMP180;11773;52.570;13.052;2022-08-21T02:38:24;101298.00;;;24.70
23208;BMP180;11773;52.570;13.052;2022-08-21T02:40:55;101311.00;;;24.70
23208;BMP180;11773;52.570;13.052;2022-08-21T02:43:27;101313.00;;;24.60
23208;BMP180;11773;52.570;13.052;2022-08-21T02:45:58;101302.00;;;24.60
23208;BMP180;11773;52.570;13.052;2022-08-21T02:48:31;101297.00;;;24.50
23208;BMP180;11773;52.570;13.052;2022-08-21T02:51:05;101306.00;;;24.50
23208;BMP180;11773;52.570;13.052;2022-08-21T02:53:36;101306.00;;;24.50
23208;BMP180;11773;52.570;13.052;2022-08-21T02:56:10;101306.00;;;24.50
23208;BMP180;11773;52.570;13.052;2022-08-21T02:58:45;101291.00;;;24.40
23208;BMP180;11773;52.570;13.052;2022-08-21T03:01:15;101299.00;;;24.40
23208;BMP180;11773;52.570;13.052;2022-08-21T03:03:47;101300.00;;;24.30
23208;BMP180;11773;52.570;13.052;2022-08-21T03:06:22;101306.00;;;24.30
23208;BMP180;11773;52.570;13.052;2022-08-21T03:08:52;101301.00;;;24.30
23208;BMP180;11773;52.570;13.052;2022-08-21T03:11:24;101309.00;;;24.30
23208;BMP180;11773;52.570;13.052;2022-08-21T03:13:54;101287.00;;;24.30
23208;BMP180;11773;52.570;13.052;2022-08-21T03:16:24;101296.00;;;24.20
23208;BMP180;11773;52.570;13.052;2022-08-21T03:18:53;101302.00;;;24.20
23208;BMP180;11773;52.570;13.052;2022-08-21T03:21:23;101291.00;;;24.20
23208;BMP180;11773;52.570;13.052;2022-08-21T03:23:52;101313.00;;;24.20
23208;BMP180;11773;52.570;13.052;2022-08-21T03:26:22;101300.00;;;24.20
23208;BMP180;11773;52.570;13.052;2022-08-21T03:28:52;101302.00;;;24.10
23208;BMP180;11773;52.570;13.052;2022-08-21T03:31:22;101301.00;;;24.10
23208;BMP180;11773;52.570;13.052;2022-08-21T03:33:51;101306.00;;;24.10
23208;BMP180;11773;52.570;13.052;2022-08-21T03:36:22;101299.00;;;24.10
23208;BMP180;11773;52.570;13.052;2022-08-21T03:38:52;101299.00;;;24.00
23208;BMP180;11773;52.570;13.052;2022-08-21T03:41:22;101298.00;;;24.00
23208;BMP180;11773;52.570;13.052;2022-08-21T03:43:51;101298.00;;;24.00
23208;BMP180;11773;52.570;13.052;2022-08-21T03:46:21;101301.00;;;23.90
23208;BMP180;11773;52.570;13.052;2022-08-21T03:48:51;101297.00;;;23.90
23208;BMP180;11773;52.570;13.052;2022-08-21T03:51:20;101299.00;;;23.90
23208;BMP180;11773;52.570;13.052;2022-08-21T03:53:50;101316.00;;;23.90
23208;BMP180;11773;52.570;13.052;2022-08-21T03:56:20;101305.00;;;23.80
23208;BMP180;11773;52.570;13.052;2022-08-21T03:58:49;101298.00;;;23.80
23208;BMP180;11773;52.570;13.052;2022-08-21T04:01:19;101308.00;;;23.80
23208;BMP180;11773;52.570;13.052;2022-08-21T04:03:49;101299.00;;;23.70
23208;BMP180;11773;52.570;13.052;2022-08-21T04:06:18;101310.00;;;23.70
23208;BMP180;11773;52.570;13.052;2022-08-21T04:08:48;101303.00;;;23.70
23208;BMP180;11773;52.570;13.052;2022-08-21T04:11:17;101306.00;;;23.60
23208;BMP180;11773;52.570;13.052;2022-08-21T04:13:47;101315.00;;;23.60
23208;BMP180;11773;52.570;13.052;2022-08-21T04:16:17;101318.00;;;23.60
23208;BMP180;11773;52.570;13.052;2022-08-21T04:18:47;101323.00;;;23.60
23208;BMP180;11773;52.570;13.052;2022-08-21T04:21:17;101313.00;;;23.50
23208;BMP180;11773;52.570;13.052;2022-08-21T04:23:48;101328.00;;;23.50
23208;BMP180;11773;52.570;13.052;2022-08-21T04:26:18;101325.00;;;23.50
23208;BMP180;11773;52.570;13.052;2022-08-21T04:28:48;101319.00;;;23.50
23208;BMP180;11773;52.570;13.052;2022-08-21T04:31:18;101314.00;;;23.40
23208;BMP180;11773;52.570;13.052;2022-08-21T04:33:47;101316.00;;;23.40
23208;BMP180;11773;52.570;13.052;2022-08-21T04:36:18;101313.00;;;23.40
23208;BMP180;11773;52.570;13.052;2022-08-21T04:38:49;101320.00;;;23.40
23208;BMP180;11773;52.570;13.052;2022-08-21T04:41:19;101324.00;;;23.40
23208;BMP180;11773;52.570;13.052;2022-08-21T04:43:51;101317.00;;;23.30
23208;BMP180;11773;52.570;13.052;2022-08-21T04:46:20;101309.00;;;23.30
23208;BMP180;11773;52.570;13.052;2022-08-21T04:48:50;101308.00;;;23.30
23208;BMP180;11773;52.570;13.052;2022-08-21T04:51:33;101314.00;;;23.30
23208;BMP180;11773;52.570;13.052;2022-08-21T04:54:14;101318.00;;;23.30
23208;BMP180;11773;52.570;13.052;2022-08-21T04:56:49;101318.00;;;23.20
23208;BMP180;11773;52.570;13.052;2022-08-21T04:59:36;101314.00;;;23.20
23208;BMP180;11773;52.570;13.052;2022-08-21T05:02:02;101331.00;;;23.20
23208;BMP180;11773;52.570;13.052;2022-08-21T05:04:34;101335.00;;;23.20
23208;BMP180;11773;52.570;13.052;2022-08-21T05:07:10;101332.00;;;23.20
23208;BMP180;11773;52.570;13.052;2022-08-21T05:09:39;101316.00;;;23.20
23208;BMP180;11773;52.570;13.052;2022-08-21T05:12:09;101326.00;;;23.20
23208;BMP180;11773;52.570;13.052;2022-08-21T05:14:39;101339.00;;;23.20
23208;BMP180;11773;52.570;13.052;2022-08-21T05:17:10;101341.00;;;23.20
23208;BMP180;11773;52.570;13.052;2022-08-21T05:19:39;101337.00;;;23.10
23208;BMP180;11773;52.570;13.052;2022-08-21T05:22:09;101338.00;;;23.10
23208;BMP180;11773;52.570;13.052;2022-08-21T05:24:38;101345.00;;;23.10
23208;BMP180;11773;52.570;13.052;2022-08-21T05:27:08;101337.00;;;23.10
23208;BMP180;11773;52.570;13.052;2022-08-21T05:29:37;101351.00;;;23.10
23208;BMP180;11773;52.570;13.052;2022-08-21T05:32:10;101338.00;;;23.10
23208;BMP180;11773;52.570;13.052;2022-08-21T05:34:40;101347.00;;;23.10
23208;BMP180;11773;52.570;13.052;2022-08-21T05:37:12;101355.00;;;23.10
23208;BMP180;11773;52.570;13.052;2022-08-21T05:39:42;101346.00;;;23.10
23208;BMP180;11773;52.570;13.052;2022-08-21T05:42:13;101347.00;;;23.10
23208;BMP180;11773;52.570;13.052;2022-08-21T05:44:42;101355.00;;;23.20
23208;BMP180;11773;52.570;13.052;2022-08-21T05:47:12;101334.00;;;23.10
23208;BMP180;11773;52.570;13.052;2022-08-21T05:49:42;101339.00;;;23.20
23208;BMP180;11773;52.570;13.052;2022-08-21T05:52:11;101348.00;;;23.20
23208;BMP180;11773;52.570;13.052;2022-08-21T05:54:41;101347.00;;;23.20
23208;BMP180;11773;52.570;13.052;2022-08-21T05:57:10;101357.00;;;23.20
23208;BMP180;11773;52.570;13.052;2022-08-21T05:59:40;101346.00;;;23.30
23208;BMP180;11773;52.570;13.052;2022-08-21T06:02:09;101356.00;;;23.30
23208;BMP180;11773;52.570;13.052;2022-08-21T06:04:40;101366.00;;;23.30
23208;BMP180;11773;52.570;13.052;2022-08-21T06:07:10;101363.00;;;23.30
23208;BMP180;11773;52.570;13.052;2022-08-21T06:09:40;101363.00;;;23.30
23208;BMP180;11773;52.570;13.052;2022-08-21T06:12:12;101370.00;;;23.40
23208;BMP180;11773;52.570;13.052;2022-08-21T06:14:42;101377.00;;;23.40
23208;BMP180;11773;52.570;13.052;2022-08-21T06:17:13;101358.00;;;23.40
23208;BMP180;11773;52.570;13.052;2022-08-21T06:19:43;101375.00;;;23.40
23208;BMP180;11773;52.570;13.052;2022-08-21T06:22:13;101360.00;;;23.50
23208;BMP180;11773;52.570;13.052;2022-08-21T06:24:42;101365.00;;;23.50
23208;BMP180;11773;52.570;13.052;2022-08-21T06:27:33;101368.00;;;23.50
23208;BMP180;11773;52.570;13.052;2022-08-21T06:30:04;101357.00;;;23.50
23208;BMP180;11773;52.570;13.052;2022-08-21T06:32:35;101346.00;;;23.50
23208;BMP180;11773;52.570;13.052;2022-08-21T06:35:07;101357.00;;;23.50
23208;BMP180;11773;52.570;13.052;2022-08-21T06:37:37;101349.00;;;23.60
23208;BMP180;11773;52.570;13.052;2022-08-21T06:40:07;101350.00;;;23.60
23208;BMP180;11773;52.570;13.052;2022-08-21T06:42:39;101357.00;;;23.70
23208;BMP180;11773;52.570;13.052;2022-08-21T06:45:11;101350.00;;;23.70
23208;BMP180;11773;52.570;13.052;2022-08-21T06:47:40;101370.00;;;23.70
23208;BMP180;11773;52.570;13.052;2022-08-21T06:50:10;101373.00;;;23.70
23208;BMP180;11773;52.570;13.052;2022-08-21T06:52:41;101364.00;;;23.80
23208;BMP180;11773;52.570;13.052;2022-08-21T06:55:10;101369.00;;;23.80
23208;BMP180;11773;52.570;13.052;2022-08-21T06:57:42;101357.00;;;23.90
23208;BMP180;11773;52.570;13.052;2022-08-21T07:00:13;101366.00;;;23.90
23208;BMP180;11773;52.570;13.052;2022-08-21T07:02:43;101375.00;;;24.00
23208;BMP180;11773;52.570;13.052;2022-08-21T07:05:12;101364.00;;;24.00
23208;BMP180;11773;52.570;13.052;2022-08-21T07:07:44;101375.00;;;24.10
23208;BMP180;11773;52.570;13.052;2022-08-21T07:10:15;101362.00;;;24.10
23208;BMP180;11773;52.570;13.052;2022-08-21T07:12:47;101351.00;;;24.20
23208;BMP180;11773;52.570;13.052;2022-08-21T07:15:18;101352.00;;;24.30
23208;BMP180;11773;52.570;13.052;2022-08-21T07:17:47;101348.00;;;24.40
23208;BMP180;11773;52.570;13.052;2022-08-21T07:20:17;101351.00;;;24.50
23208;BMP180;11773;52.570;13.052;2022-08-21T07:22:46;101350.00;;;24.60
23208;BMP180;11773;52.570;13.052;2022-08-21T07:25:16;101356.00;;;24.70
23208;BMP180;11773;52.570;13.052;2022-08-21T07:27:45;101347.00;;;24.80
23208;BMP180;11773;52.570;13.052;2022-08-21T07:30:15;101348.00;;;24.90
23208;BMP180;11773;52.570;13.052;2022-08-21T07:32:44;101360.00;;;24.90
23208;BMP180;11773;52.570;13.052;2022-08-21T07:35:14;101350.00;;;25.00
23208;BMP180;11773;52.570;13.052;2022-08-21T07:37:43;101351.00;;;25.10
23208;BMP180;11773;52.570;13.052;2022-08-21T07:40:15;101351.00;;;25.20
23208;BMP180;11773;52.570;13.052;2022-08-21T07:42:48;101352.00;;;25.30
23208;BMP180;11773;52.570;13.052;2022-08-21T07:45:22;101345.00;;;25.30
23208;BMP180;11773;52.570;13.052;2022-08-21T07:47:55;101348.00;;;25.40
23208;BMP180;11773;52.570;13.052;2022-08-21T07:50:26;101358.00;;;25.50
23208;BMP180;11773;52.570;13.052;2022-08-21T07:52:55;101348.00;;;25.50
23208;BMP180;11773;52.570;13.052;2022-08-21T07:55:25;101356.00;;;25.60
23208;BMP180;11773;52.570;13.052;2022-08-21T07:57:55;101351.00;;;25.70
23208;BMP180;11773;52.570;13.052;2022-08-21T08:00:27;101348.00;;;25.70
23208;BMP180;11773;52.570;13.052;2022-08-21T08:02:56;101343.00;;;25.80
23208;BMP180;11773;52.570;13.052;2022-08-21T08:05:30;101351.00;;;25.90
23208;BMP180;11773;52.570;13.052;2022-08-21T08:08:00;101357.00;;;26.00
23208;BMP180;11773;52.570;13.052;2022-08-21T08:10:29;101346.00;;;26.00
23208;BMP180;11773;52.570;13.052;2022-08-21T08:12:59;101346.00;;;26.10
23208;BMP180;11773;52.570;13.052;2022-08-21T08:15:29;101339.00;;;26.20
23208;BMP180;11773;52.570;13.052;2022-08-21T08:18:00;101341.00;;;26.20
23208;BMP180;11773;52.570;13.052;2022-08-21T08:20:30;101334.00;;;26.30
23208;BMP180;11773;52.570;13.052;2022-08-21T08:22:59;101347.00;;;26.40
23208;BMP180;11773;52.570;13.052;2022-08-21T08:25:29;101337.00;;;26.50
23208;BMP180;11773;52.570;13.052;2022-08-21T08:28:01;101342.00;;;26.50
23208;BMP180;11773;52.570;13.052;2022-08-21T08:30:32;101342.00;;;26.60
23208;BMP180;11773;52.570;13.052;2022-08-21T08:33:02;101328.00;;;26.60
23208;BMP180;11773;52.570;13.052;2022-08-21T08:35:31;101342.00;;;26.70
23208;BMP180;11773;52.570;13.052;2022-08-21T08:38:03;101335.00;;;26.70
23208;BMP180;11773;52.570;13.052;2022-08-21T08:40:49;101341.00;;;26.80
23208;BMP180;11773;52.570;13.052;2022-08-21T08:43:17;101348.00;;;26.80
23208;BMP180;11773;52.570;13.052;2022-08-21T08:45:50;101358.00;;;26.80
23208;BMP180;11773;52.570;13.052;2022-08-21T08:48:49;101356.00;;;26.90
23208;BMP180;11773;52.570;13.052;2022-08-21T08:51:43;101346.00;;;26.90
23208;BMP180;11773;52.570;13.052;2022-08-21T08:54:21;101360.00;;;26.90
23208;BMP180;11773;52.570;13.052;2022-08-21T08:56:49;101349.00;;;27.00
23208;BMP180;11773;52.570;13.052;2022-08-21T08:59:31;101348.00;;;27.00
23208;BMP180;11773;52.570;13.052;2022-08-21T09:01:55;101350.00;;;27.10
23208;BMP180;11773;52.570;13.052;2022-08-21T09:04:47;101369.00;;;27.10
23208;BMP180;11773;52.570;13.052;2022-08-21T09:10:38;101363.00;;;27.20
23208;BMP180;11773;52.570;13.052;2022-08-21T09:13:19;101342.00;;;27.20
23208;BMP180;11773;52.570;13.052;2022-08-21T09:16:13;101341.00;;;27.30
23208;BMP180;11773;52.570;13.052;2022-08-21T09:18:54;101341.00;;;27.30
23208;BMP180;11773;52.570;13.052;2022-08-21T09:21:49;101351.00;;;27.30
23208;BMP180;11773;52.570;13.052;2022-08-21T09:27:34;101343.00;;;27.30
23208;BMP180;11773;52.570;13.052;2022-08-21T09:30:07;101338.00;;;27.30
23208;BMP180;11773;52.570;13.052;2022-08-21T09:32:41;101338.00;;;27.30
23208;BMP180;11773;52.570;13.052;2022-08-21T09:35:47;101348.00;;;27.40
23208;BMP180;11773;52.570;13.052;2022-08-21T09:38:09;101346.00;;;27.40
23208;BMP180;11773;52.570;13.052;2022-08-21T09:40:45;101347.00;;;27.40
23208;BMP180;11773;52.570;13.052;2022-08-21T09:43:23;101351.00;;;27.50
23208;BMP180;11773;52.570;13.052;2022-08-21T09:46:12;101358.00;;;27.50
23208;BMP180;11773;52.570;13.052;2022-08-21T09:48:49;101344.00;;;27.50
23208;BMP180;11773;52.570;13.052;2022-08-21T10:00:19;101361.00;;;27.60
23208;BMP180;11773;52.570;13.052;2022-08-21T10:02:46;101352.00;;;27.60
23208;BMP180;11773;52.570;13.052;2022-08-21T10:05:37;101365.00;;;27.70
23208;BMP180;11773;52.570;13.052;2022-08-21T10:08:17;101362.00;;;27.70
23208;BMP180;11773;52.570;13.052;2022-08-21T10:10:50;101351.00;;;27.80
23208;BMP180;11773;52.570;13.052;2022-08-21T10:16:26;101341.00;;;27.90
23208;BMP180;11773;52.570;13.052;2022-08-21T10:19:10;101346.00;;;27.90
23208;BMP180;11773;52.570;13.052;2022-08-21T10:21:42;101352.00;;;27.90
23208;BMP180;11773;52.570;13.052;2022-08-21T10:27:35;101346.00;;;28.10
23208;BMP180;11773;52.570;13.052;2022-08-21T10:30:19;101343.00;;;28.10
23208;BMP180;11773;52.570;13.052;2022-08-21T10:42:34;101339.00;;;28.30
23208;BMP180;11773;52.570;13.052;2022-08-21T10:45:08;101338.00;;;28.30
23208;BMP180;11773;52.570;13.052;2022-08-21T10:47:49;101347.00;;;28.40
23208;BMP180;11773;52.570;13.052;2022-08-21T10:56:19;101346.00;;;28.60
23208;BMP180;11773;52.570;13.052;2022-08-21T10:59:17;101329.00;;;28.60
23208;BMP180;11773;52.570;13.052;2022-08-21T11:02:15;101333.00;;;28.60
23208;BMP180;11773;52.570;13.052;2022-08-21T11:04:37;101346.00;;;28.60
23208;BMP180;11773;52.570;13.052;2022-08-21T11:07:36;101332.00;;;28.70
23208;BMP180;11773;52.570;13.052;2022-08-21T11:10:21;101331.00;;;28.70
23208;BMP180;11773;52.570;13.052;2022-08-21T11:13:06;101320.00;;;28.80
23208;BMP180;11773;52.570;13.052;2022-08-21T11:18:41;101342.00;;;28.90
23208;BMP180;11773;52.570;13.052;2022-08-21T11:21:26;101334.00;;;28.90
23208;BMP180;11773;52.570;13.052;2022-08-21T11:24:15;101336.00;;;29.00
23208;BMP180;11773;52.570;13.052;2022-08-21T11:27:19;101345.00;;;29.00
23208;BMP180;11773;52.570;13.052;2022-08-21T11:30:00;101327.00;;;29.00
23208;BMP180;11773;52.570;13.052;2022-08-21T11:33:01;101328.00;;;29.00
23208;BMP180;11773;52.570;13.052;2022-08-21T11:38:40;101336.00;;;29.10
23208;BMP180;11773;52.570;13.052;2022-08-21T11:41:33;101337.00;;;29.20
23208;BMP180;11773;52.570;13.052;2022-08-21T11:48:03;101332.00;;;29.30
23208;BMP180;11773;52.570;13.052;2022-08-21T11:52:56;101321.00;;;29.50
23208;BMP180;11773;52.570;13.052;2022-08-21T11:55:36;101322.00;;;29.50
23208;BMP180;11773;52.570;13.052;2022-08-21T11:58:35;101339.00;;;29.60
23208;BMP180;11773;52.570;13.052;2022-08-21T12:01:11;101337.00;;;29.60
23208;BMP180;11773;52.570;13.052;2022-08-21T12:03:51;101316.00;;;29.70
23208;BMP180;11773;52.570;13.052;2022-08-21T12:06:15;101330.00;;;29.80
23208;BMP180;11773;52.570;13.052;2022-08-21T12:08:56;101323.00;;;29.90
23208;BMP180;11773;52.570;13.052;2022-08-21T12:11:24;101324.00;;;29.90
23208;BMP180;11773;52.570;13.052;2022-08-21T12:16:44;101327.00;;;30.00
23208;BMP180;11773;52.570;13.052;2022-08-21T12:22:10;101328.00;;;30.00
23208;BMP180;11773;52.570;13.052;2022-08-21T12:24:44;101323.00;;;30.10
23208;BMP180;11773;52.570;13.052;2022-08-21T12:27:30;101324.00;;;30.10
23208;BMP180;11773;52.570;13.052;2022-08-21T12:30:07;101315.00;;;30.10
23208;BMP180;11773;52.570;13.052;2022-08-21T12:32:53;101325.00;;;30.10
23208;BMP180;11773;52.570;13.052;2022-08-21T12:35:24;101323.00;;;30.10
23208;BMP180;11773;52.570;13.052;2022-08-21T12:38:39;101310.00;;;30.20
23208;BMP180;11773;52.570;13.052;2022-08-21T12:41:21;101328.00;;;30.20
23208;BMP180;11773;52.570;13.052;2022-08-21T12:44:20;101324.00;;;30.10
23208;BMP180;11773;52.570;13.052;2022-08-21T12:49:53;101322.00;;;30.20
23208;BMP180;11773;52.570;13.052;2022-08-21T12:52:40;101322.00;;;30.20
23208;BMP180;11773;52.570;13.052;2022-08-21T12:55:13;101302.00;;;30.20
23208;BMP180;11773;52.570;13.052;2022-08-21T12:57:44;101306.00;;;30.20
23208;BMP180;11773;52.570;13.052;2022-08-21T13:00:19;101311.00;;;30.20
23208;BMP180;11773;52.570;13.052;2022-08-21T13:02:51;101305.00;;;30.20
23208;BMP180;11773;52.570;13.052;2022-08-21T13:05:31;101302.00;;;30.30
23208;BMP180;11773;52.570;13.052;2022-08-21T13:08:06;101303.00;;;30.20
23208;BMP180;11773;52.570;13.052;2022-08-21T13:10:38;101309.00;;;30.30
23208;BMP180;11773;52.570;13.052;2022-08-21T13:13:18;101311.00;;;30.30
23208;BMP180;11773;52.570;13.052;2022-08-21T13:15:47;101314.00;;;30.30
23208;BMP180;11773;52.570;13.052;2022-08-21T13:18:23;101298.00;;;30.30
23208;BMP180;11773;52.570;13.052;2022-08-21T13:21:06;101311.00;;;30.40
23208;BMP180;11773;52.570;13.052;2022-08-21T13:23:36;101319.00;;;30.30
23208;BMP180;11773;52.570;13.052;2022-08-21T13:26:21;101307.00;;;30.30
23208;BMP180;11773;52.570;13.052;2022-08-21T13:28:51;101320.00;;;30.30
23208;BMP180;11773;52.570;13.052;2022-08-21T13:31:29;101309.00;;;30.40
23208;BMP180;11773;52.570;13.052;2022-08-21T13:33:55;101320.00;;;30.40
23208;BMP180;11773;52.570;13.052;2022-08-21T13:36:29;101310.00;;;30.40
23208;BMP180;11773;52.570;13.052;2022-08-21T13:38:59;101317.00;;;30.30
23208;BMP180;11773;52.570;13.052;2022-08-21T13:41:33;101316.00;;;30.30
23208;BMP180;11773;52.570;13.052;2022-08-21T13:44:15;101310.00;;;30.30
23208;BMP180;11773;52.570;13.052;2022-08-21T13:46:37;101306.00;;;30.30
23208;BMP180;11773;52.570;13.052;2022-08-21T13:49:08;101320.00;;;30.30
23208;BMP180;11773;52.570;13.052;2022-08-21T13:51:38;101319.00;;;30.30
23208;BMP180;11773;52.570;13.052;2022-08-21T13:54:40;101319.00;;;30.20
23208;BMP180;11773;52.570;13.052;2022-08-21T13:57:28;101310.00;;;30.20
23208;BMP180;11773;52.570;13.052;2022-08-21T14:00:24;101317.00;;;30.10
23208;BMP180;11773;52.570;13.052;2022-08-21T14:02:53;101309.00;;;30.10
23208;BMP180;11773;52.570;13.052;2022-08-21T14:05:31;101309.00;;;30.10
23208;BMP180;11773;52.570;13.052;2022-08-21T14:08:14;101313.00;;;30.10
23208;BMP180;11773;52.570;13.052;2022-08-21T14:11:05;101313.00;;;30.00
23208;BMP180;11773;52.570;13.052;2022-08-21T14:13:56;101318.00;;;30.00
23208;BMP180;11773;52.570;13.052;2022-08-21T14:16:46;101308.00;;;30.00
23208;BMP180;11773;52.570;13.052;2022-08-21T14:19:23;101311.00;;;30.00
23208;BMP180;11773;52.570;13.052;2022-08-21T14:21:53;101307.00;;;29.90
23208;BMP180;11773;52.570;13.052;2022-08-21T14:24:28;101309.00;;;30.00
23208;BMP180;11773;52.570;13.052;2022-08-21T14:27:03;101304.00;;;29.90
23208;BMP180;11773;52.570;13.052;2022-08-21T14:29:40;101309.00;;;29.90
23208;BMP180;11773;52.570;13.052;2022-08-21T14:32:22;101299.00;;;29.90
23208;BMP180;11773;52.570;13.052;2022-08-21T14:34:49;101292.00;;;29.90
23208;BMP180;11773;52.570;13.052;2022-08-21T14:37:19;101309.00;;;29.90
23208;BMP180;11773;52.570;13.052;2022-08-21T14:39:49;101296.00;;;29.90
23208;BMP180;11773;52.570;13.052;2022-08-21T14:42:19;101306.00;;;29.90
23208;BMP180;11773;52.570;13.052;2022-08-21T14:44:48;101299.00;;;29.90
23208;BMP180;11773;52.570;13.052;2022-08-21T14:47:18;101292.00;;;29.90
23208;BMP180;11773;52.570;13.052;2022-08-21T14:49:47;101298.00;;;29.90
23208;BMP180;11773;52.570;13.052;2022-08-21T14:52:18;101296.00;;;29.90
23208;BMP180;11773;52.570;13.052;2022-08-21T14:54:48;101287.00;;;29.90
23208;BMP180;11773;52.570;13.052;2022-08-21T14:57:17;101291.00;;;29.90
23208;BMP180;11773;52.570;13.052;2022-08-21T14:59:47;101294.00;;;29.90
23208;BMP180;11773;52.570;13.052;2022-08-21T15:02:17;101291.00;;;29.90
23208;BMP180;11773;52.570;13.052;2022-08-21T15:04:47;101298.00;;;29.80
23208;BMP180;11773;52.570;13.052;2022-08-21T15:07:16;101283.00;;;29.80
23208;BMP180;11773;52.570;13.052;2022-08-21T15:09:46;101282.00;;;29.80
23208;BMP180;11773;52.570;13.052;2022-08-21T15:12:15;101287.00;;;29.80
23208;BMP180;11773;52.570;13.052;2022-08-21T15:14:45;101288.00;;;29.80
23208;BMP180;11773;52.570;13.052;2022-08-21T15:17:15;101271.00;;;29.80
23208;BMP180;11773;52.570;13.052;2022-08-21T15:19:44;101283.00;;;29.80